sensor_id;sensor_type;location;lat;lon;timestamp;pressure;altitude;pressure_sealevel;temperature
64175;BMP280;50469;50.438;-119.202;2022-10-04T00:04:42;97407.94;;;27.55
64175;BMP280;50469;50.438;-119.202;2022-10-04T00:09:46;97404.13;;;27.09
64175;BMP280;50469;50.438;-119.202;2022-10-04T00:12:34;97402.91;;;27.04
64175;BMP280;50469;50.438;-119.202;2022-10-04T00:15:16;97387.03;;;26.91
64175;BMP280;50469;50.438;-119.202;2022-10-04T00:25:57;97387.84;;;25.98
64175;BMP280;50469;50.438;-119.202;2022-10-04T00:28:30;97399.97;;;26.20
64175;BMP280;50469;50.438;-119.202;2022-10-04T00:33:38;97391.91;;;25.75
64175;BMP280;50469;50.438;-119.202;2022-10-04T00:44:55;97391.72;;;25.11
64175;BMP280;50469;50.438;-119.202;2022-10-04T00:50:21;97394.22;;;24.81
64175;BMP280;50469;50.438;-119.202;2022-10-04T00:52:55;97388.16;;;24.49
64175;BMP280;50469;50.438;-119.202;2022-10-04T00:55:35;97389.84;;;24.29
64175;BMP280;50469;50.438;-119.202;2022-10-04T00:58:19;97394.69;;;23.97
64175;BMP280;50469;50.438;-119.202;2022-10-04T01:00:48;97393.78;;;23.69
64175;BMP280;50469;50.438;-119.202;2022-10-04T01:03:36;97386.03;;;23.30
64175;BMP280;50469;50.438;-119.202;2022-10-04T01:06:09;97387.97;;;22.92
64175;BMP280;50469;50.438;-119.202;2022-10-04T01:08:48;97400.16;;;22.71
64175;BMP280;50469;50.438;-119.202;2022-10-04T01:11:44;97396.16;;;22.92
64175;BMP280;50469;50.438;-119.202;2022-10-04T01:14:23;97394.22;;;22.98
64175;BMP280;50469;50.438;-119.202;2022-10-04T01:16:56;97405.03;;;22.87
64175;BMP280;50469;50.438;-119.202;2022-10-04T01:24:44;97399.03;;;21.16
64175;BMP280;50469;50.438;-119.202;2022-10-04T01:27:31;97410.19;;;20.64
64175;BMP280;50469;50.438;-119.202;2022-10-04T01:30:03;97407.41;;;20.50
64175;BMP280;50469;50.438;-119.202;2022-10-04T01:32:35;97405.47;;;20.26
64175;BMP280;50469;50.438;-119.202;2022-10-04T01:35:07;97409.84;;;20.24
64175;BMP280;50469;50.438;-119.202;2022-10-04T01:37:39;97412.53;;;20.00
64175;BMP280;50469;50.438;-119.202;2022-10-04T01:40:10;97408.41;;;20.04
64175;BMP280;50469;50.438;-119.202;2022-10-04T01:42:46;97405.09;;;20.09
64175;BMP280;50469;50.438;-119.202;2022-10-04T01:47:55;97417.81;;;19.61
64175;BMP280;50469;50.438;-119.202;2022-10-04T01:50:37;97414.81;;;19.40
64175;BMP280;50469;50.438;-119.202;2022-10-04T01:53:11;97422.97;;;19.31
64175;BMP280;50469;50.438;-119.202;2022-10-04T01:55:41;97421.78;;;19.23
64175;BMP280;50469;50.438;-119.202;2022-10-04T01:58:17;97421.94;;;19.10
64175;BMP280;50469;50.438;-119.202;2022-10-04T02:00:55;97426.63;;;18.91
64175;BMP280;50469;50.438;-119.202;2022-10-04T02:03:36;97427.97;;;18.68
64175;BMP280;50469;50.438;-119.202;2022-10-04T02:06:08;97428.75;;;18.78
64175;BMP280;50469;50.438;-119.202;2022-10-04T02:08:45;97439.84;;;18.71
64175;BMP280;50469;50.438;-119.202;2022-10-04T02:11:17;97437.44;;;18.64
64175;BMP280;50469;50.438;-119.202;2022-10-04T02:13:50;97438.63;;;18.53
64175;BMP280;50469;50.438;-119.202;2022-10-04T02:16:19;97442.47;;;18.34
64175;BMP280;50469;50.438;-119.202;2022-10-04T02:18:49;97436.69;;;18.14
64175;BMP280;50469;50.438;-119.202;2022-10-04T02:21:18;97429.91;;;17.78
64175;BMP280;50469;50.438;-119.202;2022-10-04T02:23:47;97438.44;;;17.67
64175;BMP280;50469;50.438;-119.202;2022-10-04T02:26:16;97440.94;;;17.62
64175;BMP280;50469;50.438;-119.202;2022-10-04T02:28:44;97435.41;;;17.65
64175;BMP280;50469;50.438;-119.202;2022-10-04T02:31:12;97447.28;;;17.58
64175;BMP280;50469;50.438;-119.202;2022-10-04T02:33:42;97440.38;;;17.67
64175;BMP280;50469;50.438;-119.202;2022-10-04T02:36:11;97440.34;;;17.45
64175;BMP280;50469;50.438;-119.202;2022-10-04T02:39:13;97443.59;;;16.96
64175;BMP280;50469;50.438;-119.202;2022-10-04T02:41:55;97441.34;;;16.94
64175;BMP280;50469;50.438;-119.202;2022-10-04T02:47:12;97440.66;;;17.03
64175;BMP280;50469;50.438;-119.202;2022-10-04T02:49:51;97438.88;;;16.87
64175;BMP280;50469;50.438;-119.202;2022-10-04T02:55:25;97448.63;;;16.72
64175;BMP280;50469;50.438;-119.202;2022-10-04T02:57:57;97445.50;;;16.60
64175;BMP280;50469;50.438;-119.202;2022-10-04T03:00:28;97454.06;;;16.46
64175;BMP280;50469;50.438;-119.202;2022-10-04T03:06:13;97457.31;;;15.73
64175;BMP280;50469;50.438;-119.202;2022-10-04T03:11:14;97457.09;;;15.39
64175;BMP280;50469;50.438;-119.202;2022-10-04T03:13:46;97455.47;;;15.41
64175;BMP280;50469;50.438;-119.202;2022-10-04T03:16:19;97460.13;;;15.41
64175;BMP280;50469;50.438;-119.202;2022-10-04T03:18:48;97470.09;;;15.27
64175;BMP280;50469;50.438;-119.202;2022-10-04T03:21:23;97472.44;;;15.25
64175;BMP280;50469;50.438;-119.202;2022-10-04T03:23:53;97468.13;;;15.28
64175;BMP280;50469;50.438;-119.202;2022-10-04T03:26:41;97474.47;;;15.21
64175;BMP280;50469;50.438;-119.202;2022-10-04T03:29:11;97478.59;;;15.26
64175;BMP280;50469;50.438;-119.202;2022-10-04T03:31:45;97473.38;;;15.19
64175;BMP280;50469;50.438;-119.202;2022-10-04T03:34:27;97482.84;;;14.94
64175;BMP280;50469;50.438;-119.202;2022-10-04T03:36:59;97484.53;;;14.88
64175;BMP280;50469;50.438;-119.202;2022-10-04T03:39:31;97481.00;;;14.91
64175;BMP280;50469;50.438;-119.202;2022-10-04T03:42:21;97485.06;;;14.47
64175;BMP280;50469;50.438;-119.202;2022-10-04T03:45:00;97479.13;;;14.35
64175;BMP280;50469;50.438;-119.202;2022-10-04T03:47:34;97475.19;;;14.40
64175;BMP280;50469;50.438;-119.202;2022-10-04T03:50:28;97481.28;;;14.44
64175;BMP280;50469;50.438;-119.202;2022-10-04T03:53:00;97483.31;;;14.56
64175;BMP280;50469;50.438;-119.202;2022-10-04T03:55:34;97490.81;;;14.65
64175;BMP280;50469;50.438;-119.202;2022-10-04T03:58:03;97488.28;;;14.58
64175;BMP280;50469;50.438;-119.202;2022-10-04T04:00:39;97485.72;;;14.34
64175;BMP280;50469;50.438;-119.202;2022-10-04T04:03:15;97490.53;;;14.23
64175;BMP280;50469;50.438;-119.202;2022-10-04T04:05:51;97489.59;;;13.93
64175;BMP280;50469;50.438;-119.202;2022-10-04T04:08:36;97495.34;;;13.96
64175;BMP280;50469;50.438;-119.202;2022-10-04T04:11:05;97485.38;;;13.73
64175;BMP280;50469;50.438;-119.202;2022-10-04T04:16:20;97500.16;;;13.84
64175;BMP280;50469;50.438;-119.202;2022-10-04T04:18:52;97502.88;;;14.04
64175;BMP280;50469;50.438;-119.202;2022-10-04T04:21:22;97501.47;;;13.96
64175;BMP280;50469;50.438;-119.202;2022-10-04T04:23:59;97506.56;;;13.90
64175;BMP280;50469;50.438;-119.202;2022-10-04T04:26:57;97506.22;;;13.88
64175;BMP280;50469;50.438;-119.202;2022-10-04T04:29:33;97508.00;;;13.75
64175;BMP280;50469;50.438;-119.202;2022-10-04T04:32:29;97510.06;;;13.44
64175;BMP280;50469;50.438;-119.202;2022-10-04T04:35:00;97505.28;;;13.32
64175;BMP280;50469;50.438;-119.202;2022-10-04T04:37:31;97517.44;;;13.16
64175;BMP280;50469;50.438;-119.202;2022-10-04T04:40:15;97512.06;;;13.16
64175;BMP280;50469;50.438;-119.202;2022-10-04T04:42:46;97516.47;;;12.76
64175;BMP280;50469;50.438;-119.202;2022-10-04T04:45:19;97515.59;;;12.86
64175;BMP280;50469;50.438;-119.202;2022-10-04T04:47:52;97526.81;;;13.05
64175;BMP280;50469;50.438;-119.202;2022-10-04T04:50:31;97511.56;;;13.25
64175;BMP280;50469;50.438;-119.202;2022-10-04T04:53:21;97520.38;;;13.25
64175;BMP280;50469;50.438;-119.202;2022-10-04T04:56:01;97524.34;;;13.17
64175;BMP280;50469;50.438;-119.202;2022-10-04T04:58:34;97526.69;;;12.88
64175;BMP280;50469;50.438;-119.202;2022-10-04T05:01:27;97521.06;;;12.79
64175;BMP280;50469;50.438;-119.202;2022-10-04T05:06:33;97521.94;;;12.72
64175;BMP280;50469;50.438;-119.202;2022-10-04T05:09:03;97524.63;;;12.69
64175;BMP280;50469;50.438;-119.202;2022-10-04T05:11:36;97521.97;;;12.34
64175;BMP280;50469;50.438;-119.202;2022-10-04T05:14:08;97522.38;;;12.33
64175;BMP280;50469;50.438;-119.202;2022-10-04T05:16:39;97523.63;;;12.25
64175;BMP280;50469;50.438;-119.202;2022-10-04T05:21:44;97521.16;;;12.07
64175;BMP280;50469;50.438;-119.202;2022-10-04T05:26:55;97519.47;;;11.82
64175;BMP280;50469;50.438;-119.202;2022-10-04T05:29:27;97525.94;;;11.88
64175;BMP280;50469;50.438;-119.202;2022-10-04T05:34:38;97530.22;;;11.82
64175;BMP280;50469;50.438;-119.202;2022-10-04T05:47:49;97539.06;;;11.79
64175;BMP280;50469;50.438;-119.202;2022-10-04T05:50:36;97542.06;;;11.85
64175;BMP280;50469;50.438;-119.202;2022-10-04T05:59:17;97553.28;;;11.73
64175;BMP280;50469;50.438;-119.202;2022-10-04T06:07:29;97555.84;;;11.42
64175;BMP280;50469;50.438;-119.202;2022-10-04T06:24:20;97560.06;;;11.36
64175;BMP280;50469;50.438;-119.202;2022-10-04T06:27:20;97557.66;;;11.56
64175;BMP280;50469;50.438;-119.202;2022-10-04T06:30:06;97557.13;;;11.72
64175;BMP280;50469;50.438;-119.202;2022-10-04T06:33:13;97547.91;;;11.73
64175;BMP280;50469;50.438;-119.202;2022-10-04T06:36:20;97562.69;;;10.76
64175;BMP280;50469;50.438;-119.202;2022-10-04T06:58:46;97565.44;;;10.55
64175;BMP280;50469;50.438;-119.202;2022-10-04T07:01:35;97564.75;;;10.44
64175;BMP280;50469;50.438;-119.202;2022-10-04T07:07:38;97562.03;;;10.47
64175;BMP280;50469;50.438;-119.202;2022-10-04T07:16:04;97566.19;;;10.59
64175;BMP280;50469;50.438;-119.202;2022-10-04T07:21:22;97565.09;;;10.53
64175;BMP280;50469;50.438;-119.202;2022-10-04T07:23:56;97560.88;;;10.52
64175;BMP280;50469;50.438;-119.202;2022-10-04T07:29:21;97563.25;;;10.25
64175;BMP280;50469;50.438;-119.202;2022-10-04T07:34:59;97568.97;;;10.30
64175;BMP280;50469;50.438;-119.202;2022-10-04T07:37:33;97573.94;;;10.32
64175;BMP280;50469;50.438;-119.202;2022-10-04T07:42:47;97580.47;;;9.95
64175;BMP280;50469;50.438;-119.202;2022-10-04T07:45:37;97585.06;;;10.05
64175;BMP280;50469;50.438;-119.202;2022-10-04T07:48:20;97581.25;;;9.78
64175;BMP280;50469;50.438;-119.202;2022-10-04T07:54:21;97580.06;;;9.50
64175;BMP280;50469;50.438;-119.202;2022-10-04T07:57:00;97586.94;;;9.51
64175;BMP280;50469;50.438;-119.202;2022-10-04T08:07:46;97605.31;;;9.63
64175;BMP280;50469;50.438;-119.202;2022-10-04T08:13:27;97604.88;;;9.43
64175;BMP280;50469;50.438;-119.202;2022-10-04T08:17:00;97602.91;;;9.29
64175;BMP280;50469;50.438;-119.202;2022-10-04T08:24:40;97600.69;;;9.53
64175;BMP280;50469;50.438;-119.202;2022-10-04T08:30:14;97600.34;;;9.72
64175;BMP280;50469;50.438;-119.202;2022-10-04T08:50:43;97578.47;;;9.13
64175;BMP280;50469;50.438;-119.202;2022-10-04T09:01:38;97597.78;;;8.81
64175;BMP280;50469;50.438;-119.202;2022-10-04T09:13:16;97595.75;;;8.57
64175;BMP280;50469;50.438;-119.202;2022-10-04T09:21:41;97593.22;;;8.16
64175;BMP280;50469;50.438;-119.202;2022-10-04T09:32:22;97590.59;;;8.23
64175;BMP280;50469;50.438;-119.202;2022-10-04T09:48:59;97618.66;;;8.58
64175;BMP280;50469;50.438;-119.202;2022-10-04T10:02:33;97618.53;;;8.36
64175;BMP280;50469;50.438;-119.202;2022-10-04T10:31:22;97605.16;;;7.88
64175;BMP280;50469;50.438;-119.202;2022-10-04T10:39:52;97623.75;;;7.77
64175;BMP280;50469;50.438;-119.202;2022-10-04T10:47:58;97625.25;;;7.78
64175;BMP280;50469;50.438;-119.202;2022-10-04T10:50:59;97626.44;;;7.81
64175;BMP280;50469;50.438;-119.202;2022-10-04T11:05:39;97624.66;;;8.44
64175;BMP280;50469;50.438;-119.202;2022-10-04T11:11:26;97613.94;;;8.40
64175;BMP280;50469;50.438;-119.202;2022-10-04T11:23:09;97623.50;;;7.97
64175;BMP280;50469;50.438;-119.202;2022-10-04T11:25:57;97621.88;;;7.82
64175;BMP280;50469;50.438;-119.202;2022-10-04T11:28:51;97616.84;;;7.73
64175;BMP280;50469;50.438;-119.202;2022-10-04T11:35:07;97633.22;;;7.75
64175;BMP280;50469;50.438;-119.202;2022-10-04T11:43:35;97625.50;;;6.99
64175;BMP280;50469;50.438;-119.202;2022-10-04T11:55:15;97637.31;;;6.98
64175;BMP280;50469;50.438;-119.202;2022-10-04T11:57:52;97634.66;;;6.98
64175;BMP280;50469;50.438;-119.202;2022-10-04T12:00:25;97634.34;;;7.06
64175;BMP280;50469;50.438;-119.202;2022-10-04T12:20:17;97644.00;;;7.18
64175;BMP280;50469;50.438;-119.202;2022-10-04T12:28:47;97651.38;;;6.98
64175;BMP280;50469;50.438;-119.202;2022-10-04T12:31:34;97646.13;;;7.02
64175;BMP280;50469;50.438;-119.202;2022-10-04T12:42:19;97648.53;;;6.84
64175;BMP280;50469;50.438;-119.202;2022-10-04T12:48:20;97635.28;;;6.91
64175;BMP280;50469;50.438;-119.202;2022-10-04T12:54:09;97637.59;;;6.92
64175;BMP280;50469;50.438;-119.202;2022-10-04T12:57:03;97639.56;;;6.95
64175;BMP280;50469;50.438;-119.202;2022-10-04T13:02:24;97639.72;;;6.80
64175;BMP280;50469;50.438;-119.202;2022-10-04T13:05:25;97636.69;;;6.81
64175;BMP280;50469;50.438;-119.202;2022-10-04T13:10:55;97642.91;;;6.62
64175;BMP280;50469;50.438;-119.202;2022-10-04T13:13:47;97642.28;;;6.72
64175;BMP280;50469;50.438;-119.202;2022-10-04T13:17:02;97648.22;;;6.66
64175;BMP280;50469;50.438;-119.202;2022-10-04T13:20:28;97646.53;;;6.54
64175;BMP280;50469;50.438;-119.202;2022-10-04T13:22:58;97660.38;;;6.37
64175;BMP280;50469;50.438;-119.202;2022-10-04T13:57:30;97654.66;;;6.35
64175;BMP280;50469;50.438;-119.202;2022-10-04T14:00:11;97653.91;;;6.38
64175;BMP280;50469;50.438;-119.202;2022-10-04T14:08:12;97670.63;;;6.61
64175;BMP280;50469;50.438;-119.202;2022-10-04T14:22:20;97679.06;;;5.98
64175;BMP280;50469;50.438;-119.202;2022-10-04T14:35:52;97683.91;;;6.61
64175;BMP280;50469;50.438;-119.202;2022-10-04T14:47:03;97684.22;;;6.83
64175;BMP280;50469;50.438;-119.202;2022-10-04T14:56:13;97684.44;;;6.97
64175;BMP280;50469;50.438;-119.202;2022-10-04T15:01:30;97686.59;;;6.88
64175;BMP280;50469;50.438;-119.202;2022-10-04T15:06:50;97686.78;;;7.32
64175;BMP280;50469;50.438;-119.202;2022-10-04T15:09:56;97690.72;;;7.39
64175;BMP280;50469;50.438;-119.202;2022-10-04T15:23:13;97702.72;;;8.34
64175;BMP280;50469;50.438;-119.202;2022-10-04T15:25:45;97707.50;;;8.58
64175;BMP280;50469;50.438;-119.202;2022-10-04T15:37:24;97697.16;;;9.16
64175;BMP280;50469;50.438;-119.202;2022-10-04T15:43:16;97686.56;;;9.41
64175;BMP280;50469;50.438;-119.202;2022-10-04T15:48:55;97693.56;;;9.74
64175;BMP280;50469;50.438;-119.202;2022-10-04T15:57:31;97707.72;;;10.03
64175;BMP280;50469;50.438;-119.202;2022-10-04T16:00:10;97700.50;;;10.14
64175;BMP280;50469;50.438;-119.202;2022-10-04T16:08:40;97698.53;;;10.72
64175;BMP280;50469;50.438;-119.202;2022-10-04T16:16:33;97696.34;;;11.52
64175;BMP280;50469;50.438;-119.202;2022-10-04T16:19:34;97693.53;;;11.73
64175;BMP280;50469;50.438;-119.202;2022-10-04T16:22:18;97691.81;;;11.97
64175;BMP280;50469;50.438;-119.202;2022-10-04T16:35:40;97682.06;;;12.63
64175;BMP280;50469;50.438;-119.202;2022-10-04T16:56:24;97686.53;;;14.15
64175;BMP280;50469;50.438;-119.202;2022-10-04T16:59:04;97687.03;;;13.83
64175;BMP280;50469;50.438;-119.202;2022-10-04T17:01:41;97683.59;;;14.06
64175;BMP280;50469;50.438;-119.202;2022-10-04T17:26:31;97663.25;;;15.41
64175;BMP280;50469;50.438;-119.202;2022-10-04T17:34:40;97660.13;;;16.21
64175;BMP280;50469;50.438;-119.202;2022-10-04T17:43:12;97649.63;;;16.52
64175;BMP280;50469;50.438;-119.202;2022-10-04T17:46:20;97642.09;;;16.60
64175;BMP280;50469;50.438;-119.202;2022-10-04T17:51:59;97641.06;;;16.83
64175;BMP280;50469;50.438;-119.202;2022-10-04T17:54:49;97632.41;;;16.75
64175;BMP280;50469;50.438;-119.202;2022-10-04T17:57:26;97630.22;;;16.70
64175;BMP280;50469;50.438;-119.202;2022-10-04T18:00:07;97623.53;;;17.13
64175;BMP280;50469;50.438;-119.202;2022-10-04T18:03:06;97618.75;;;17.77
64175;BMP280;50469;50.438;-119.202;2022-10-04T18:13:45;97611.13;;;17.63
64175;BMP280;50469;50.438;-119.202;2022-10-04T18:16:30;97610.34;;;18.19
64175;BMP280;50469;50.438;-119.202;2022-10-04T18:22:16;97602.75;;;19.08
64175;BMP280;50469;50.438;-119.202;2022-10-04T18:25:01;97595.63;;;18.92
64175;BMP280;50469;50.438;-119.202;2022-10-04T18:27:50;97593.56;;;19.14
64175;BMP280;50469;50.438;-119.202;2022-10-04T18:30:20;97586.66;;;19.50
64175;BMP280;50469;50.438;-119.202;2022-10-04T18:32:56;97586.31;;;19.02
64175;BMP280;50469;50.438;-119.202;2022-10-04T18:35:27;97580.78;;;19.42
64175;BMP280;50469;50.438;-119.202;2022-10-04T18:38:43;97582.81;;;20.21
64175;BMP280;50469;50.438;-119.202;2022-10-04T18:43:39;97571.50;;;20.13
64175;BMP280;50469;50.438;-119.202;2022-10-04T18:46:19;97569.63;;;20.29
64175;BMP280;50469;50.438;-119.202;2022-10-04T18:48:51;97561.22;;;20.84
64175;BMP280;50469;50.438;-119.202;2022-10-04T18:54:31;97566.38;;;20.82
64175;BMP280;50469;50.438;-119.202;2022-10-04T19:11:11;97538.34;;;21.98
64175;BMP280;50469;50.438;-119.202;2022-10-04T19:17:03;97532.09;;;21.38
64175;BMP280;50469;50.438;-119.202;2022-10-04T19:28:26;97519.53;;;22.70
64175;BMP280;50469;50.438;-119.202;2022-10-04T19:31:27;97513.63;;;22.77
64175;BMP280;50469;50.438;-119.202;2022-10-04T19:34:25;97509.41;;;22.97
64175;BMP280;50469;50.438;-119.202;2022-10-04T19:37:04;97508.56;;;22.29
64175;BMP280;50469;50.438;-119.202;2022-10-04T19:47:53;97492.13;;;23.57
64175;BMP280;50469;50.438;-119.202;2022-10-04T19:50:34;97487.38;;;23.26
64175;BMP280;50469;50.438;-119.202;2022-10-04T19:53:23;97491.25;;;23.40
64175;BMP280;50469;50.438;-119.202;2022-10-04T19:55:54;97490.81;;;24.22
64175;BMP280;50469;50.438;-119.202;2022-10-04T20:03:21;97479.22;;;23.58
64175;BMP280;50469;50.438;-119.202;2022-10-04T20:05:52;97483.56;;;24.13
64175;BMP280;50469;50.438;-119.202;2022-10-04T20:11:25;97477.41;;;24.29
64175;BMP280;50469;50.438;-119.202;2022-10-04T20:22:24;97463.72;;;25.00
64175;BMP280;50469;50.438;-119.202;2022-10-04T20:36:07;97444.16;;;26.16
64175;BMP280;50469;50.438;-119.202;2022-10-04T20:38:18;97454.97;;;25.80
64175;BMP280;50469;50.438;-119.202;2022-10-04T20:40:59;97441.28;;;25.75
64175;BMP280;50469;50.438;-119.202;2022-10-04T20:43:27;97439.06;;;26.37
64175;BMP280;50469;50.438;-119.202;2022-10-04T20:45:56;97437.34;;;26.28
64175;BMP280;50469;50.438;-119.202;2022-10-04T20:48:27;97438.75;;;26.52
64175;BMP280;50469;50.438;-119.202;2022-10-04T20:50:56;97434.03;;;26.52
64175;BMP280;50469;50.438;-119.202;2022-10-04T20:53:34;97422.22;;;26.57
64175;BMP280;50469;50.438;-119.202;2022-10-04T20:56:31;97422.78;;;26.56
64175;BMP280;50469;50.438;-119.202;2022-10-04T20:59:01;97414.75;;;26.58
64175;BMP280;50469;50.438;-119.202;2022-10-04T21:01:35;97413.75;;;26.55
64175;BMP280;50469;50.438;-119.202;2022-10-04T21:04:42;97408.81;;;26.84
64175;BMP280;50469;50.438;-119.202;2022-10-04T21:07:15;97401.28;;;26.90
64175;BMP280;50469;50.438;-119.202;2022-10-04T21:09:44;97399.00;;;26.11
64175;BMP280;50469;50.438;-119.202;2022-10-04T21:18:03;97391.22;;;27.28
64175;BMP280;50469;50.438;-119.202;2022-10-04T21:20:48;97390.16;;;25.72
64175;BMP280;50469;50.438;-119.202;2022-10-04T21:23:28;97381.22;;;27.01
64175;BMP280;50469;50.438;-119.202;2022-10-04T21:26:23;97370.78;;;26.63
64175;BMP280;50469;50.438;-119.202;2022-10-04T21:28:53;97365.16;;;27.10
64175;BMP280;50469;50.438;-119.202;2022-10-04T21:31:21;97363.78;;;27.47
64175;BMP280;50469;50.438;-119.202;2022-10-04T21:33:52;97365.94;;;26.34
64175;BMP280;50469;50.438;-119.202;2022-10-04T21:36:23;97364.91;;;26.78
64175;BMP280;50469;50.438;-119.202;2022-10-04T21:38:51;97362.53;;;25.53
64175;BMP280;50469;50.438;-119.202;2022-10-04T21:41:19;97364.16;;;25.95
64175;BMP280;50469;50.438;-119.202;2022-10-04T21:43:47;97361.31;;;26.17
64175;BMP280;50469;50.438;-119.202;2022-10-04T21:46:15;97350.28;;;26.29
64175;BMP280;50469;50.438;-119.202;2022-10-04T21:48:46;97348.59;;;27.40
64175;BMP280;50469;50.438;-119.202;2022-10-04T21:51:14;97346.28;;;26.65
64175;BMP280;50469;50.438;-119.202;2022-10-04T21:53:42;97343.63;;;26.54
64175;BMP280;50469;50.438;-119.202;2022-10-04T21:56:13;97341.03;;;26.26
64175;BMP280;50469;50.438;-119.202;2022-10-04T21:58:41;97342.66;;;26.82
64175;BMP280;50469;50.438;-119.202;2022-10-04T22:01:12;97344.41;;;26.02
64175;BMP280;50469;50.438;-119.202;2022-10-04T22:03:40;97340.31;;;26.20
64175;BMP280;50469;50.438;-119.202;2022-10-04T22:06:11;97342.97;;;26.73
64175;BMP280;50469;50.438;-119.202;2022-10-04T22:08:39;97343.38;;;26.11
64175;BMP280;50469;50.438;-119.202;2022-10-04T22:11:08;97337.69;;;27.54
64175;BMP280;50469;50.438;-119.202;2022-10-04T22:13:38;97341.13;;;27.35
64175;BMP280;50469;50.438;-119.202;2022-10-04T22:16:07;97340.41;;;26.09
64175;BMP280;50469;50.438;-119.202;2022-10-04T22:18:35;97329.84;;;27.39
64175;BMP280;50469;50.438;-119.202;2022-10-04T22:21:03;97337.69;;;27.54
64175;BMP280;50469;50.438;-119.202;2022-10-04T22:23:37;97338.63;;;27.13
64175;BMP280;50469;50.438;-119.202;2022-10-04T22:26:16;97330.94;;;28.11
64175;BMP280;50469;50.438;-119.202;2022-10-04T22:28:50;97374.16;;;28.86
64175;BMP280;50469;50.438;-119.202;2022-10-04T22:31:19;97421.53;;;28.66
64175;BMP280;50469;50.438;-119.202;2022-10-04T22:33:52;97515.88;;;30.69
64175;BMP280;50469;50.438;-119.202;2022-10-04T22:36:33;97463.50;;;30.63
64175;BMP280;50469;50.438;-119.202;2022-10-04T22:44:22;97298.69;;;27.74
64175;BMP280;50469;50.438;-119.202;2022-10-04T22:46:59;97295.38;;;27.57
64175;BMP280;50469;50.438;-119.202;2022-10-04T22:49:33;97281.97;;;27.29
64175;BMP280;50469;50.438;-119.202;2022-10-04T22:52:08;97343.34;;;28.69
64175;BMP280;50469;50.438;-119.202;2022-10-04T22:54:42;97335.78;;;27.24
64175;BMP280;50469;50.438;-119.202;2022-10-04T22:57:12;97337.16;;;29.08
64175;BMP280;50469;50.438;-119.202;2022-10-04T22:59:50;97288.81;;;27.22
64175;BMP280;50469;50.438;-119.202;2022-10-04T23:02:23;97278.66;;;26.27
64175;BMP280;50469;50.438;-119.202;2022-10-04T23:04:54;97278.72;;;27.06
64175;BMP280;50469;50.438;-119.202;2022-10-04T23:07:26;97269.75;;;27.86
64175;BMP280;50469;50.438;-119.202;2022-10-04T23:09:54;97262.28;;;25.63
64175;BMP280;50469;50.438;-119.202;2022-10-04T23:12:24;97265.50;;;26.50
64175;BMP280;50469;50.438;-119.202;2022-10-04T23:14:53;97266.88;;;25.96
64175;BMP280;50469;50.438;-119.202;2022-10-04T23:17:32;97263.34;;;26.37
64175;BMP280;50469;50.438;-119.202;2022-10-04T23:20:10;97256.34;;;26.06
64175;BMP280;50469;50.438;-119.202;2022-10-04T23:22:45;97254.53;;;24.92
64175;BMP280;50469;50.438;-119.202;2022-10-04T23:25:23;97246.91;;;25.54
64175;BMP280;50469;50.438;-119.202;2022-10-04T23:27:52;97242.56;;;24.84
64175;BMP280;50469;50.438;-119.202;2022-10-04T23:30:24;97233.59;;;24.95
64175;BMP280;50469;50.438;-119.202;2022-10-04T23:32:55;97232.31;;;25.12
64175;BMP280;50469;50.438;-119.202;2022-10-04T23:35:28;97233.00;;;25.35
64175;BMP280;50469;50.438;-119.202;2022-10-04T23:37:57;97234.41;;;25.59
64175;BMP280;50469;50.438;-119.202;2022-10-04T23:40:25;97234.31;;;25.18
64175;BMP280;50469;50.438;-119.202;2022-10-04T23:42:58;97225.19;;;24.53
64175;BMP280;50469;50.438;-119.202;2022-10-04T23:45:34;97226.16;;;24.22
64175;BMP280;50469;50.438;-119.202;2022-10-04T23:48:07;97227.41;;;24.27
64175;BMP280;50469;50.438;-119.202;2022-10-04T23:50:37;97229.09;;;23.96
64175;BMP280;50469;50.438;-119.202;2022-10-04T23:53:14;97226.34;;;23.85
64175;BMP280;50469;50.438;-119.202;2022-10-04T23:55:46;97223.25;;;23.55
64175;BMP280;50469;50.438;-119.202;2022-10-04T23:58:18;97223.91;;;23.33
